sensor_id;sensor_type;location;lat;lon;timestamp;pressure;altitude;pressure_sealevel;temperature;humidity
12803;BME280;6465;42.700;23.278;2024-03-07T00:00:12;94781.81;;;9.45;100.00
12803;BME280;6465;42.700;23.278;2024-03-07T00:02:43;94778.06;;;9.33;100.00
12803;BME280;6465;42.700;23.278;2024-03-07T00:05:11;94774.75;;;9.30;100.00
12803;BME280;6465;42.700;23.278;2024-03-07T00:07:39;94776.38;;;9.15;100.00
12803;BME280;6465;42.700;23.278;2024-03-07T00:10:07;94777.50;;;9.09;100.00
12803;BME280;6465;42.700;23.278;2024-03-07T00:12:35;94769.22;;;9.01;100.00
12803;BME280;6465;42.700;23.278;2024-03-07T00:15:02;94759.84;;;8.97;100.00
12803;BME280;6465;42.700;23.278;2024-03-07T00:17:29;94765.59;;;8.87;100.00
12803;BME280;6465;42.700;23.278;2024-03-07T00:19:56;94760.38;;;8.87;100.00
12803;BME280;6465;42.700;23.278;2024-03-07T00:22:25;94763.97;;;8.84;100.00
12803;BME280;6465;42.700;23.278;2024-03-07T00:24:55;94752.91;;;8.79;100.00
12803;BME280;6465;42.700;23.278;2024-03-07T00:27:22;94752.91;;;8.79;100.00
12803;BME280;6465;42.700;23.278;2024-03-07T00:29:49;94752.78;;;8.82;100.00
12803;BME280;6465;42.700;23.278;2024-03-07T00:32:19;94746.91;;;8.77;100.00
12803;BME280;6465;42.700;23.278;2024-03-07T00:34:46;94758.28;;;8.76;100.00
12803;BME280;6465;42.700;23.278;2024-03-07T00:37:13;94751.22;;;8.78;100.00
12803;BME280;6465;42.700;23.278;2024-03-07T00:39:42;94759.13;;;8.77;100.00
12803;BME280;6465;42.700;23.278;2024-03-07T00:42:09;94753.91;;;8.77;100.00
12803;BME280;6465;42.700;23.278;2024-03-07T00:44:36;94757.34;;;8.77;100.00
12803;BME280;6465;42.700;23.278;2024-03-07T00:47:03;94746.00;;;8.78;100.00
12803;BME280;6465;42.700;23.278;2024-03-07T00:49:31;94750.59;;;8.73;100.00
12803;BME280;6465;42.700;23.278;2024-03-07T00:51:58;94744.38;;;8.75;100.00
12803;BME280;6465;42.700;23.278;2024-03-07T00:54:24;94739.25;;;8.74;100.00
12803;BME280;6465;42.700;23.278;2024-03-07T00:56:52;94741.63;;;8.79;100.00
12803;BME280;6465;42.700;23.278;2024-03-07T00:59:20;94734.41;;;8.84;100.00
12803;BME280;6465;42.700;23.278;2024-03-07T01:01:48;94725.72;;;8.83;100.00
12803;BME280;6465;42.700;23.278;2024-03-07T01:04:16;94722.66;;;8.92;100.00
12803;BME280;6465;42.700;23.278;2024-03-07T01:06:43;94722.97;;;8.86;100.00
12803;BME280;6465;42.700;23.278;2024-03-07T01:09:10;94730.75;;;8.88;100.00
12803;BME280;6465;42.700;23.278;2024-03-07T01:11:40;94716.44;;;8.78;100.00
12803;BME280;6465;42.700;23.278;2024-03-07T01:14:09;94721.66;;;8.78;100.00
12803;BME280;6465;42.700;23.278;2024-03-07T01:16:36;94721.53;;;8.81;100.00
12803;BME280;6465;42.700;23.278;2024-03-07T01:19:03;94728.63;;;8.77;100.00
12803;BME280;6465;42.700;23.278;2024-03-07T01:21:31;94732.03;;;8.79;100.00
12803;BME280;6465;42.700;23.278;2024-03-07T01:23:58;94724.63;;;8.70;100.00
12803;BME280;6465;42.700;23.278;2024-03-07T01:26:27;94725.72;;;8.66;100.00
12803;BME280;6465;42.700;23.278;2024-03-07T01:28:55;94721.16;;;8.88;100.00
12803;BME280;6465;42.700;23.278;2024-03-07T01:31:24;94716.22;;;8.82;100.00
12803;BME280;6465;42.700;23.278;2024-03-07T01:33:51;94712.22;;;8.75;100.00
12803;BME280;6465;42.700;23.278;2024-03-07T01:36:18;94708.53;;;8.79;100.00
12803;BME280;6465;42.700;23.278;2024-03-07T01:38:46;94710.53;;;8.74;100.00
12803;BME280;6465;42.700;23.278;2024-03-07T01:41:13;94714.91;;;8.73;100.00
12803;BME280;6465;42.700;23.278;2024-03-07T01:43:41;94711.16;;;8.79;100.00
12803;BME280;6465;42.700;23.278;2024-03-07T01:46:08;94717.28;;;8.78;100.00
12803;BME280;6465;42.700;23.278;2024-03-07T01:48:38;94723.13;;;8.83;100.00
12803;BME280;6465;42.700;23.278;2024-03-07T01:51:06;94724.97;;;8.81;100.00
12803;BME280;6465;42.700;23.278;2024-03-07T01:53:34;94729.41;;;8.79;100.00
12803;BME280;6465;42.700;23.278;2024-03-07T01:56:02;94729.25;;;8.65;100.00
12803;BME280;6465;42.700;23.278;2024-03-07T01:58:30;94734.75;;;8.59;100.00
12803;BME280;6465;42.700;23.278;2024-03-07T02:00:58;94728.75;;;8.57;100.00
12803;BME280;6465;42.700;23.278;2024-03-07T02:03:25;94730.31;;;8.61;100.00
12803;BME280;6465;42.700;23.278;2024-03-07T02:05:53;94727.78;;;8.59;100.00
12803;BME280;6465;42.700;23.278;2024-03-07T02:08:21;94730.03;;;8.67;100.00
12803;BME280;6465;42.700;23.278;2024-03-07T02:10:48;94720.19;;;8.72;100.00
12803;BME280;6465;42.700;23.278;2024-03-07T02:13:15;94712.13;;;8.77;100.00
12803;BME280;6465;42.700;23.278;2024-03-07T02:15:43;94710.22;;;8.80;100.00
12803;BME280;6465;42.700;23.278;2024-03-07T02:18:10;94707.75;;;8.77;100.00
12803;BME280;6465;42.700;23.278;2024-03-07T02:20:37;94697.56;;;8.37;100.00
12803;BME280;6465;42.700;23.278;2024-03-07T02:23:05;94700.91;;;8.21;100.00
12803;BME280;6465;42.700;23.278;2024-03-07T02:25:32;94696.28;;;8.26;100.00
12803;BME280;6465;42.700;23.278;2024-03-07T02:28:03;94703.63;;;8.18;100.00
12803;BME280;6465;42.700;23.278;2024-03-07T02:30:31;94710.84;;;8.13;100.00
12803;BME280;6465;42.700;23.278;2024-03-07T02:32:58;94711.59;;;8.15;100.00
12803;BME280;6465;42.700;23.278;2024-03-07T02:35:32;94719.91;;;8.23;100.00
12803;BME280;6465;42.700;23.278;2024-03-07T02:38:01;94720.69;;;8.25;100.00
12803;BME280;6465;42.700;23.278;2024-03-07T02:40:30;94723.06;;;8.30;100.00
12803;BME280;6465;42.700;23.278;2024-03-07T02:42:57;94728.13;;;8.34;100.00
12803;BME280;6465;42.700;23.278;2024-03-07T02:45:24;94723.06;;;8.30;100.00
12803;BME280;6465;42.700;23.278;2024-03-07T02:47:51;94720.13;;;8.38;100.00
12803;BME280;6465;42.700;23.278;2024-03-07T02:50:19;94719.78;;;8.26;100.00
12803;BME280;6465;42.700;23.278;2024-03-07T02:52:47;94730.00;;;8.31;100.00
12803;BME280;6465;42.700;23.278;2024-03-07T02:55:14;94731.41;;;8.38;100.00
12803;BME280;6465;42.700;23.278;2024-03-07T02:57:42;94731.13;;;8.25;100.00
12803;BME280;6465;42.700;23.278;2024-03-07T03:00:10;94734.94;;;8.18;100.00
12803;BME280;6465;42.700;23.278;2024-03-07T03:02:45;94739.66;;;8.10;100.00
12803;BME280;6465;42.700;23.278;2024-03-07T03:05:13;94731.19;;;8.05;100.00
12803;BME280;6465;42.700;23.278;2024-03-07T03:07:40;94718.16;;;7.86;100.00
12803;BME280;6465;42.700;23.278;2024-03-07T03:10:08;94722.81;;;7.80;100.00
12803;BME280;6465;42.700;23.278;2024-03-07T03:12:37;94734.22;;;7.77;100.00
12803;BME280;6465;42.700;23.278;2024-03-07T03:15:07;94731.63;;;7.77;100.00
12803;BME280;6465;42.700;23.278;2024-03-07T03:17:35;94739.88;;;7.87;100.00
12803;BME280;6465;42.700;23.278;2024-03-07T03:20:02;94736.75;;;7.79;100.00
12803;BME280;6465;42.700;23.278;2024-03-07T03:22:40;94735.97;;;7.77;100.00
12803;BME280;6465;42.700;23.278;2024-03-07T03:25:09;94737.03;;;7.73;100.00
12803;BME280;6465;42.700;23.278;2024-03-07T03:27:37;94739.31;;;7.80;100.00
12803;BME280;6465;42.700;23.278;2024-03-07T03:30:07;94743.94;;;7.74;100.00
12803;BME280;6465;42.700;23.278;2024-03-07T03:32:39;94749.63;;;7.82;100.00
12803;BME280;6465;42.700;23.278;2024-03-07T03:35:07;94756.19;;;7.72;100.00
12803;BME280;6465;42.700;23.278;2024-03-07T03:37:39;94751.88;;;7.71;100.00
12803;BME280;6465;42.700;23.278;2024-03-07T03:40:08;94734.16;;;7.40;100.00
12803;BME280;6465;42.700;23.278;2024-03-07T03:42:36;94735.34;;;7.33;100.00
12803;BME280;6465;42.700;23.278;2024-03-07T03:45:04;94728.50;;;7.30;100.00
12803;BME280;6465;42.700;23.278;2024-03-07T03:47:34;94722.50;;;7.28;100.00
12803;BME280;6465;42.700;23.278;2024-03-07T03:50:03;94720.97;;;7.04;100.00
12803;BME280;6465;42.700;23.278;2024-03-07T03:52:30;94735.53;;;7.08;100.00
12803;BME280;6465;42.700;23.278;2024-03-07T03:54:59;94723.03;;;6.96;100.00
12803;BME280;6465;42.700;23.278;2024-03-07T03:57:27;94718.09;;;6.90;100.00
12803;BME280;6465;42.700;23.278;2024-03-07T03:59:54;94721.31;;;6.74;100.00
12803;BME280;6465;42.700;23.278;2024-03-07T04:02:22;94720.56;;;6.72;100.00
12803;BME280;6465;42.700;23.278;2024-03-07T04:04:50;94722.97;;;6.77;100.00
12803;BME280;6465;42.700;23.278;2024-03-07T04:07:18;94722.56;;;6.66;100.00
12803;BME280;6465;42.700;23.278;2024-03-07T04:09:46;94723.47;;;6.65;100.00
12803;BME280;6465;42.700;23.278;2024-03-07T04:12:13;94730.81;;;6.75;100.00
12803;BME280;6465;42.700;23.278;2024-03-07T04:14:41;94730.56;;;6.82;100.00
12803;BME280;6465;42.700;23.278;2024-03-07T04:17:09;94733.72;;;6.90;100.00
12803;BME280;6465;42.700;23.278;2024-03-07T04:19:38;94738.59;;;6.97;100.00
12803;BME280;6465;42.700;23.278;2024-03-07T04:22:07;94733.13;;;7.03;100.00
12803;BME280;6465;42.700;23.278;2024-03-07T04:24:35;94741.69;;;7.07;100.00
12803;BME280;6465;42.700;23.278;2024-03-07T04:27:02;94731.25;;;7.07;100.00
12803;BME280;6465;42.700;23.278;2024-03-07T04:29:30;94729.47;;;7.07;100.00
12803;BME280;6465;42.700;23.278;2024-03-07T04:31:57;94735.41;;;7.11;100.00
12803;BME280;6465;42.700;23.278;2024-03-07T04:34:25;94733.19;;;7.22;100.00
12803;BME280;6465;42.700;23.278;2024-03-07T04:36:53;94732.88;;;7.30;100.00
12803;BME280;6465;42.700;23.278;2024-03-07T04:39:22;94733.31;;;7.39;100.00
12803;BME280;6465;42.700;23.278;2024-03-07T04:41:55;94730.38;;;7.47;100.00
12803;BME280;6465;42.700;23.278;2024-03-07T04:44:23;94730.84;;;7.36;100.00
12803;BME280;6465;42.700;23.278;2024-03-07T04:46:50;94736.38;;;7.29;100.00
12803;BME280;6465;42.700;23.278;2024-03-07T04:49:21;94727.72;;;7.08;100.00
12803;BME280;6465;42.700;23.278;2024-03-07T04:51:49;94741.31;;;6.94;100.00
12803;BME280;6465;42.700;23.278;2024-03-07T04:54:16;94742.81;;;6.80;100.00
12803;BME280;6465;42.700;23.278;2024-03-07T04:56:45;94698.78;;;6.33;100.00
12803;BME280;6465;42.700;23.278;2024-03-07T04:59:12;94745.38;;;6.59;100.00
12803;BME280;6465;42.700;23.278;2024-03-07T05:01:39;94752.50;;;6.54;100.00
12803;BME280;6465;42.700;23.278;2024-03-07T05:04:06;94748.34;;;6.50;100.00
12803;BME280;6465;42.700;23.278;2024-03-07T05:06:34;94753.66;;;6.47;100.00
12803;BME280;6465;42.700;23.278;2024-03-07T05:09:01;94758.09;;;6.45;100.00
12803;BME280;6465;42.700;23.278;2024-03-07T05:11:28;94751.91;;;6.48;100.00
12803;BME280;6465;42.700;23.278;2024-03-07T05:13:57;94751.84;;;6.49;100.00
12803;BME280;6465;42.700;23.278;2024-03-07T05:16:25;94742.94;;;6.55;100.00
12803;BME280;6465;42.700;23.278;2024-03-07T05:18:52;94750.69;;;6.56;100.00
12803;BME280;6465;42.700;23.278;2024-03-07T05:21:20;94761.47;;;6.47;100.00
12803;BME280;6465;42.700;23.278;2024-03-07T05:24:00;94765.00;;;6.46;100.00
12803;BME280;6465;42.700;23.278;2024-03-07T05:26:27;94769.72;;;6.58;100.00
12803;BME280;6465;42.700;23.278;2024-03-07T05:28:56;94769.06;;;6.73;100.00
12803;BME280;6465;42.700;23.278;2024-03-07T05:31:24;94777.66;;;6.75;100.00
12803;BME280;6465;42.700;23.278;2024-03-07T05:33:51;94776.47;;;6.62;100.00
12803;BME280;6465;42.700;23.278;2024-03-07T05:36:18;94781.41;;;6.68;100.00
12803;BME280;6465;42.700;23.278;2024-03-07T05:38:45;94781.16;;;6.74;100.00
12803;BME280;6465;42.700;23.278;2024-03-07T05:41:12;94775.97;;;6.74;100.00
12803;BME280;6465;42.700;23.278;2024-03-07T05:43:40;94785.16;;;6.83;100.00
12803;BME280;6465;42.700;23.278;2024-03-07T05:46:08;94778.34;;;7.01;100.00
12803;BME280;6465;42.700;23.278;2024-03-07T05:48:36;94774.97;;;6.99;100.00
12803;BME280;6465;42.700;23.278;2024-03-07T05:51:03;94782.34;;;7.09;100.00
12803;BME280;6465;42.700;23.278;2024-03-07T05:53:31;94788.13;;;7.16;100.00
12803;BME280;6465;42.700;23.278;2024-03-07T05:55:58;94777.38;;;7.03;100.00
12803;BME280;6465;42.700;23.278;2024-03-07T05:58:25;94787.91;;;6.80;100.00
12803;BME280;6465;42.700;23.278;2024-03-07T06:00:52;94784.94;;;6.67;100.00
12803;BME280;6465;42.700;23.278;2024-03-07T06:03:20;94787.88;;;6.60;100.00
12803;BME280;6465;42.700;23.278;2024-03-07T06:05:49;94792.06;;;6.62;100.00
12803;BME280;6465;42.700;23.278;2024-03-07T06:08:17;94791.72;;;6.71;100.00
12803;BME280;6465;42.700;23.278;2024-03-07T06:10:45;94794.06;;;6.78;100.00
12803;BME280;6465;42.700;23.278;2024-03-07T06:13:14;94800.72;;;6.85;100.00
12803;BME280;6465;42.700;23.278;2024-03-07T06:15:43;94801.19;;;6.94;100.00
12803;BME280;6465;42.700;23.278;2024-03-07T06:18:10;94814.75;;;7.02;100.00
12803;BME280;6465;42.700;23.278;2024-03-07T06:20:40;94818.72;;;7.11;100.00
12803;BME280;6465;42.700;23.278;2024-03-07T06:23:08;94819.97;;;7.23;100.00
12803;BME280;6465;42.700;23.278;2024-03-07T06:25:37;94819.88;;;7.04;100.00
12803;BME280;6465;42.700;23.278;2024-03-07T06:28:13;94813.25;;;6.97;100.00
12803;BME280;6465;42.700;23.278;2024-03-07T06:30:42;94804.19;;;6.85;100.00
12803;BME280;6465;42.700;23.278;2024-03-07T06:33:10;94797.50;;;7.00;100.00
12803;BME280;6465;42.700;23.278;2024-03-07T06:35:39;94809.09;;;7.13;100.00
12803;BME280;6465;42.700;23.278;2024-03-07T06:38:07;94810.78;;;7.34;100.00
12803;BME280;6465;42.700;23.278;2024-03-07T06:40:34;94801.75;;;7.43;100.00
12803;BME280;6465;42.700;23.278;2024-03-07T06:43:02;94810.72;;;7.36;99.98
12803;BME280;6465;42.700;23.278;2024-03-07T06:45:32;94807.47;;;7.31;100.00
12803;BME280;6465;42.700;23.278;2024-03-07T06:47:59;94817.69;;;7.35;100.00
12803;BME280;6465;42.700;23.278;2024-03-07T06:50:26;94815.63;;;7.43;100.00
12803;BME280;6465;42.700;23.278;2024-03-07T06:52:55;94812.97;;;7.45;100.00
12803;BME280;6465;42.700;23.278;2024-03-07T06:55:22;94816.69;;;7.39;100.00
12803;BME280;6465;42.700;23.278;2024-03-07T06:57:49;94814.97;;;7.38;98.61
12803;BME280;6465;42.700;23.278;2024-03-07T07:00:17;94821.56;;;7.27;99.32
12803;BME280;6465;42.700;23.278;2024-03-07T07:02:47;94825.44;;;7.37;99.71
12803;BME280;6465;42.700;23.278;2024-03-07T07:05:14;94817.06;;;7.50;100.00
12803;BME280;6465;42.700;23.278;2024-03-07T07:07:43;94803.50;;;7.63;100.00
12803;BME280;6465;42.700;23.278;2024-03-07T07:10:13;94796.47;;;7.65;97.64
12803;BME280;6465;42.700;23.278;2024-03-07T07:12:44;94796.72;;;7.59;96.38
12803;BME280;6465;42.700;23.278;2024-03-07T07:15:11;94792.75;;;7.50;98.19
12803;BME280;6465;42.700;23.278;2024-03-07T07:17:38;94794.19;;;7.57;98.47
12803;BME280;6465;42.700;23.278;2024-03-07T07:20:06;94794.75;;;7.84;98.46
12803;BME280;6465;42.700;23.278;2024-03-07T07:22:36;94796.50;;;8.02;98.45
12803;BME280;6465;42.700;23.278;2024-03-07T07:25:04;94803.44;;;8.22;97.85
12803;BME280;6465;42.700;23.278;2024-03-07T07:27:33;94800.38;;;8.32;96.14
12803;BME280;6465;42.700;23.278;2024-03-07T07:30:00;94808.53;;;8.44;94.53
12803;BME280;6465;42.700;23.278;2024-03-07T07:32:27;94799.63;;;8.29;89.41
12803;BME280;6465;42.700;23.278;2024-03-07T07:34:54;94792.59;;;8.12;89.77
12803;BME280;6465;42.700;23.278;2024-03-07T07:37:21;94794.63;;;8.06;91.81
12803;BME280;6465;42.700;23.278;2024-03-07T07:39:48;94789.25;;;8.09;91.11
12803;BME280;6465;42.700;23.278;2024-03-07T07:42:16;94791.59;;;8.35;92.15
12803;BME280;6465;42.700;23.278;2024-03-07T07:44:45;94791.56;;;8.54;91.04
12803;BME280;6465;42.700;23.278;2024-03-07T07:47:11;94792.72;;;8.65;89.59
12803;BME280;6465;42.700;23.278;2024-03-07T07:49:38;94799.03;;;8.43;87.08
12803;BME280;6465;42.700;23.278;2024-03-07T07:52:07;94788.56;;;8.05;91.52
12803;BME280;6465;42.700;23.278;2024-03-07T07:54:34;94793.19;;;7.80;93.77
12803;BME280;6465;42.700;23.278;2024-03-07T07:57:01;94798.19;;;7.84;95.24
12803;BME280;6465;42.700;23.278;2024-03-07T07:59:28;94788.84;;;7.99;94.20
12803;BME280;6465;42.700;23.278;2024-03-07T08:01:57;94801.59;;;8.05;93.06
12803;BME280;6465;42.700;23.278;2024-03-07T08:04:24;94799.09;;;7.83;93.09
12803;BME280;6465;42.700;23.278;2024-03-07T08:06:51;94801.31;;;7.53;95.28
12803;BME280;6465;42.700;23.278;2024-03-07T08:09:19;94805.19;;;7.64;98.10
12803;BME280;6465;42.700;23.278;2024-03-07T08:11:46;94810.13;;;7.70;95.83
12803;BME280;6465;42.700;23.278;2024-03-07T08:14:15;94811.28;;;7.83;96.60
12803;BME280;6465;42.700;23.278;2024-03-07T08:16:43;94813.16;;;8.00;96.43
12803;BME280;6465;42.700;23.278;2024-03-07T08:19:16;94815.97;;;7.75;94.18
12803;BME280;6465;42.700;23.278;2024-03-07T08:21:43;94820.09;;;7.80;94.62
12803;BME280;6465;42.700;23.278;2024-03-07T08:24:10;94819.56;;;7.92;94.35
12803;BME280;6465;42.700;23.278;2024-03-07T08:26:37;94824.13;;;7.87;94.30
12803;BME280;6465;42.700;23.278;2024-03-07T08:29:09;94834.09;;;7.98;94.91
12803;BME280;6465;42.700;23.278;2024-03-07T08:31:37;94826.84;;;8.23;93.96
12803;BME280;6465;42.700;23.278;2024-03-07T08:34:04;94826.47;;;8.32;93.44
12803;BME280;6465;42.700;23.278;2024-03-07T08:36:32;94832.81;;;8.46;91.78
12803;BME280;6465;42.700;23.278;2024-03-07T08:39:00;94843.94;;;8.49;89.89
12803;BME280;6465;42.700;23.278;2024-03-07T08:41:28;94842.84;;;8.55;90.02
12803;BME280;6465;42.700;23.278;2024-03-07T08:43:57;94841.44;;;8.48;90.95
12803;BME280;6465;42.700;23.278;2024-03-07T08:46:23;94850.66;;;8.73;88.99
12803;BME280;6465;42.700;23.278;2024-03-07T08:48:53;94856.34;;;8.63;88.27
12803;BME280;6465;42.700;23.278;2024-03-07T08:51:19;94850.72;;;8.34;91.01
12803;BME280;6465;42.700;23.278;2024-03-07T08:53:48;94860.81;;;8.22;92.61
12803;BME280;6465;42.700;23.278;2024-03-07T08:56:15;94849.59;;;8.01;93.28
12803;BME280;6465;42.700;23.278;2024-03-07T08:58:42;94851.44;;;7.99;96.79
12803;BME280;6465;42.700;23.278;2024-03-07T09:01:10;94857.28;;;8.04;94.80
12803;BME280;6465;42.700;23.278;2024-03-07T09:03:37;94852.97;;;8.03;95.46
12803;BME280;6465;42.700;23.278;2024-03-07T09:06:05;94863.06;;;8.11;93.25
12803;BME280;6465;42.700;23.278;2024-03-07T09:08:32;94862.22;;;8.10;94.51
12803;BME280;6465;42.700;23.278;2024-03-07T09:11:00;94861.19;;;8.14;96.12
12803;BME280;6465;42.700;23.278;2024-03-07T09:13:27;94857.63;;;8.35;96.34
12803;BME280;6465;42.700;23.278;2024-03-07T09:15:54;94865.91;;;8.25;91.93
12803;BME280;6465;42.700;23.278;2024-03-07T09:18:21;94856.72;;;8.16;92.73
12803;BME280;6465;42.700;23.278;2024-03-07T09:20:49;94857.56;;;8.17;92.59
12803;BME280;6465;42.700;23.278;2024-03-07T09:23:16;94859.16;;;8.21;91.57
12803;BME280;6465;42.700;23.278;2024-03-07T09:25:43;94867.94;;;8.18;92.09
12803;BME280;6465;42.700;23.278;2024-03-07T09:28:12;94866.31;;;8.16;92.42
12803;BME280;6465;42.700;23.278;2024-03-07T09:30:40;94864.31;;;8.02;92.65
12803;BME280;6465;42.700;23.278;2024-03-07T09:33:08;94866.25;;;7.78;94.33
12803;BME280;6465;42.700;23.278;2024-03-07T09:35:37;94864.00;;;7.89;94.71
12803;BME280;6465;42.700;23.278;2024-03-07T09:38:04;94867.31;;;8.13;94.99
12803;BME280;6465;42.700;23.278;2024-03-07T09:40:32;94863.69;;;8.36;93.75
12803;BME280;6465;42.700;23.278;2024-03-07T09:43:00;94867.31;;;8.52;90.04
12803;BME280;6465;42.700;23.278;2024-03-07T09:45:30;94874.16;;;8.55;88.09
12803;BME280;6465;42.700;23.278;2024-03-07T09:47:58;94873.78;;;8.62;89.15
12803;BME280;6465;42.700;23.278;2024-03-07T09:50:26;94865.69;;;8.68;89.28
12803;BME280;6465;42.700;23.278;2024-03-07T09:52:56;94865.75;;;8.67;90.33
12803;BME280;6465;42.700;23.278;2024-03-07T09:55:25;94861.16;;;8.53;90.85
12803;BME280;6465;42.700;23.278;2024-03-07T09:57:53;94859.81;;;8.45;90.84
12803;BME280;6465;42.700;23.278;2024-03-07T10:00:21;94846.00;;;8.22;93.27
12803;BME280;6465;42.700;23.278;2024-03-07T10:02:56;94850.41;;;8.02;95.41
12803;BME280;6465;42.700;23.278;2024-03-07T10:05:26;94848.75;;;8.01;95.84
12803;BME280;6465;42.700;23.278;2024-03-07T10:07:53;94832.03;;;7.86;96.51
12803;BME280;6465;42.700;23.278;2024-03-07T10:10:21;94841.56;;;8.06;96.29
12803;BME280;6465;42.700;23.278;2024-03-07T10:12:48;94814.91;;;7.99;95.14
12803;BME280;6465;42.700;23.278;2024-03-07T10:15:18;94838.19;;;8.22;93.82
12803;BME280;6465;42.700;23.278;2024-03-07T10:17:45;94846.59;;;8.29;93.64
12803;BME280;6465;42.700;23.278;2024-03-07T10:20:16;94838.53;;;8.54;93.04
12803;BME280;6465;42.700;23.278;2024-03-07T10:22:46;94846.06;;;8.60;91.73
12803;BME280;6465;42.700;23.278;2024-03-07T10:25:17;94834.50;;;8.65;93.42
12803;BME280;6465;42.700;23.278;2024-03-07T10:27:45;94834.94;;;8.75;90.78
12803;BME280;6465;42.700;23.278;2024-03-07T10:30:14;94830.41;;;8.96;90.98
12803;BME280;6465;42.700;23.278;2024-03-07T10:32:46;94834.53;;;9.19;90.48
12803;BME280;6465;42.700;23.278;2024-03-07T10:35:20;94836.03;;;9.41;85.99
12803;BME280;6465;42.700;23.278;2024-03-07T10:37:48;94824.41;;;9.30;90.58
12803;BME280;6465;42.700;23.278;2024-03-07T10:40:15;94827.41;;;9.22;86.38
12803;BME280;6465;42.700;23.278;2024-03-07T10:42:45;94827.47;;;9.21;85.90
12803;BME280;6465;42.700;23.278;2024-03-07T10:45:18;94815.13;;;9.41;86.64
12803;BME280;6465;42.700;23.278;2024-03-07T10:47:52;94819.72;;;9.53;83.50
12803;BME280;6465;42.700;23.278;2024-03-07T10:50:28;94819.41;;;9.60;82.62
12803;BME280;6465;42.700;23.278;2024-03-07T10:52:59;94826.66;;;9.54;82.03
12803;BME280;6465;42.700;23.278;2024-03-07T10:55:34;94816.41;;;9.50;83.24
12803;BME280;6465;42.700;23.278;2024-03-07T10:58:09;94814.19;;;9.42;83.63
12803;BME280;6465;42.700;23.278;2024-03-07T11:00:39;94808.97;;;9.60;83.84
12803;BME280;6465;42.700;23.278;2024-03-07T11:03:11;94814.78;;;9.82;83.96
12803;BME280;6465;42.700;23.278;2024-03-07T11:05:41;94803.34;;;10.00;84.15
12803;BME280;6465;42.700;23.278;2024-03-07T11:08:10;94807.94;;;10.12;80.60
12803;BME280;6465;42.700;23.278;2024-03-07T11:10:38;94807.59;;;10.03;79.35
12803;BME280;6465;42.700;23.278;2024-03-07T11:13:08;94808.75;;;9.97;79.69
12803;BME280;6465;42.700;23.278;2024-03-07T11:15:37;94810.81;;;10.08;79.36
12803;BME280;6465;42.700;23.278;2024-03-07T11:18:06;94793.56;;;10.04;78.77
12803;BME280;6465;42.700;23.278;2024-03-07T11:20:37;94798.66;;;10.07;77.76
12803;BME280;6465;42.700;23.278;2024-03-07T11:23:28;94791.91;;;10.03;79.59
12803;BME280;6465;42.700;23.278;2024-03-07T11:26:02;94797.09;;;10.20;80.22
12803;BME280;6465;42.700;23.278;2024-03-07T11:28:33;94794.75;;;10.31;80.01
12803;BME280;6465;42.700;23.278;2024-03-07T11:31:20;94799.94;;;10.48;78.34
12803;BME280;6465;42.700;23.278;2024-03-07T11:34:13;94788.84;;;10.59;78.19
12803;BME280;6465;42.700;23.278;2024-03-07T11:36:45;94788.28;;;10.69;77.32
12803;BME280;6465;42.700;23.278;2024-03-07T11:42:22;94786.31;;;10.26;80.05
12803;BME280;6465;42.700;23.278;2024-03-07T11:44:51;94777.44;;;10.28;80.16
12803;BME280;6465;42.700;23.278;2024-03-07T11:47:21;94784.22;;;10.48;80.09
12803;BME280;6465;42.700;23.278;2024-03-07T11:49:50;94781.41;;;10.51;79.74
12803;BME280;6465;42.700;23.278;2024-03-07T11:52:18;94782.53;;;10.47;78.76
12803;BME280;6465;42.700;23.278;2024-03-07T11:54:45;94786.94;;;10.62;77.88
12803;BME280;6465;42.700;23.278;2024-03-07T11:57:18;94788.19;;;10.55;76.05
12803;BME280;6465;42.700;23.278;2024-03-07T11:59:53;94791.88;;;10.20;77.58
12803;BME280;6465;42.700;23.278;2024-03-07T12:02:20;94791.19;;;9.99;79.03
12803;BME280;6465;42.700;23.278;2024-03-07T12:04:48;94765.28;;;9.62;80.23
12803;BME280;6465;42.700;23.278;2024-03-07T12:07:15;94788.84;;;9.77;79.32
12803;BME280;6465;42.700;23.278;2024-03-07T12:09:44;94789.97;;;9.56;81.54
12803;BME280;6465;42.700;23.278;2024-03-07T12:12:16;94786.75;;;9.51;81.71
12803;BME280;6465;42.700;23.278;2024-03-07T12:14:43;94777.19;;;9.50;82.40
12803;BME280;6465;42.700;23.278;2024-03-07T12:17:12;94764.09;;;9.34;80.69
12803;BME280;6465;42.700;23.278;2024-03-07T12:19:43;94786.50;;;9.38;81.91
12803;BME280;6465;42.700;23.278;2024-03-07T12:22:12;94789.66;;;9.45;81.30
12803;BME280;6465;42.700;23.278;2024-03-07T12:24:41;94788.88;;;9.43;82.43
12803;BME280;6465;42.700;23.278;2024-03-07T12:27:08;94792.75;;;9.36;84.28
12803;BME280;6465;42.700;23.278;2024-03-07T12:29:36;94785.00;;;9.34;85.63
12803;BME280;6465;42.700;23.278;2024-03-07T12:32:05;94782.38;;;9.34;86.56
12803;BME280;6465;42.700;23.278;2024-03-07T12:34:35;94781.38;;;9.54;85.28
12803;BME280;6465;42.700;23.278;2024-03-07T12:37:06;94780.75;;;9.49;85.44
12803;BME280;6465;42.700;23.278;2024-03-07T12:39:35;94770.22;;;9.50;83.03
12803;BME280;6465;42.700;23.278;2024-03-07T12:42:11;94781.22;;;9.40;82.63
12803;BME280;6465;42.700;23.278;2024-03-07T12:44:40;94781.03;;;9.43;84.33
12803;BME280;6465;42.700;23.278;2024-03-07T12:47:10;94767.06;;;9.44;83.81
12803;BME280;6465;42.700;23.278;2024-03-07T12:49:38;94773.13;;;9.44;83.53
12803;BME280;6465;42.700;23.278;2024-03-07T12:52:06;94768.28;;;9.37;84.08
12803;BME280;6465;42.700;23.278;2024-03-07T12:54:34;94780.44;;;9.38;81.92
12803;BME280;6465;42.700;23.278;2024-03-07T12:57:03;94771.53;;;9.25;82.64
12803;BME280;6465;42.700;23.278;2024-03-07T12:59:31;94780.81;;;9.30;83.54
12803;BME280;6465;42.700;23.278;2024-03-07T13:01:59;94778.59;;;9.40;82.96
12803;BME280;6465;42.700;23.278;2024-03-07T13:04:26;94781.22;;;9.40;82.58
12803;BME280;6465;42.700;23.278;2024-03-07T13:06:54;94787.06;;;9.45;83.13
12803;BME280;6465;42.700;23.278;2024-03-07T13:09:25;94795.44;;;9.51;82.39
12803;BME280;6465;42.700;23.278;2024-03-07T13:11:53;94813.50;;;9.56;81.54
12803;BME280;6465;42.700;23.278;2024-03-07T13:14:20;94816.13;;;9.39;75.32